South Kenner, Louisiana
Current Conditions -  °F | °C
As of 2:53 AM on Wednesday 26 Nov 2014 (Local Time) from KMSY Reporting Station
Clear Clear  
Wind Chill: 40°   Ceiling: Unl
Heat Index: 40°   Visibility: 10mi
Dew Point: 34°   Wind: 3mph
Humidity: 79%   Direction: 260°W
Pressure: 30.21"   Gusts: NA
Location:  29.9137°N, 90.2078°W
Report Text: KMSY 260853Z 26003KT 10SM CLR 04/01 A3021 RMK AO2 SLP231 T00440011 58008
Loading
Personal Weather Stations






























Interactive Weather Map New forecast layout! Learn more

10-Day Weather Forecast

Advertisements
Track Severe Weather on mobile